sensor_id;sensor_type;location;lat;lon;timestamp;pressure;altitude;pressure_sealevel;temperature
28305;BMP280;15569;42.652;23.040;2023-12-04T00:01:10;93375.31;;;7.41
28305;BMP280;15569;42.652;23.040;2023-12-04T00:03:35;93391.56;;;7.13
28305;BMP280;15569;42.652;23.040;2023-12-04T00:06:00;93390.53;;;7.47
28305;BMP280;15569;42.652;23.040;2023-12-04T00:08:26;93392.06;;;7.78
28305;BMP280;15569;42.652;23.040;2023-12-04T00:10:51;93400.38;;;7.52
28305;BMP280;15569;42.652;23.040;2023-12-04T00:13:17;93396.84;;;7.99
28305;BMP280;15569;42.652;23.040;2023-12-04T00:15:44;93369.38;;;7.14
28305;BMP280;15569;42.652;23.040;2023-12-04T00:18:09;93385.88;;;7.09
28305;BMP280;15569;42.652;23.040;2023-12-04T00:20:34;93397.41;;;7.09
28305;BMP280;15569;42.652;23.040;2023-12-04T00:23:00;93392.41;;;7.06
28305;BMP280;15569;42.652;23.040;2023-12-04T00:25:26;93413.34;;;8.03
28305;BMP280;15569;42.652;23.040;2023-12-04T00:27:51;93404.06;;;7.47
28305;BMP280;15569;42.652;23.040;2023-12-04T00:30:16;93418.41;;;7.78
28305;BMP280;15569;42.652;23.040;2023-12-04T00:32:42;93402.31;;;7.70
28305;BMP280;15569;42.652;23.040;2023-12-04T00:35:07;93405.38;;;7.26
28305;BMP280;15569;42.652;23.040;2023-12-04T00:37:33;93407.06;;;7.03
28305;BMP280;15569;42.652;23.040;2023-12-04T00:40:02;93412.72;;;7.16
28305;BMP280;15569;42.652;23.040;2023-12-04T00:42:28;93417.44;;;7.16
28305;BMP280;15569;42.652;23.040;2023-12-04T00:44:53;93418.41;;;6.82
28305;BMP280;15569;42.652;23.040;2023-12-04T00:47:19;93424.09;;;6.96
28305;BMP280;15569;42.652;23.040;2023-12-04T00:49:44;93424.00;;;7.13
28305;BMP280;15569;42.652;23.040;2023-12-04T00:52:09;93425.69;;;6.99
28305;BMP280;15569;42.652;23.040;2023-12-04T00:54:35;93430.06;;;6.85
28305;BMP280;15569;42.652;23.040;2023-12-04T00:57:03;93423.69;;;6.99
28305;BMP280;15569;42.652;23.040;2023-12-04T00:59:29;93430.41;;;6.98
28305;BMP280;15569;42.652;23.040;2023-12-04T01:01:54;93424.97;;;6.89
28305;BMP280;15569;42.652;23.040;2023-12-04T01:04:19;93423.69;;;6.90
28305;BMP280;15569;42.652;23.040;2023-12-04T01:06:45;93429.91;;;6.73
28305;BMP280;15569;42.652;23.040;2023-12-04T01:09:11;93436.59;;;6.82
28305;BMP280;15569;42.652;23.040;2023-12-04T01:11:36;93423.16;;;6.55
28305;BMP280;15569;42.652;23.040;2023-12-04T01:14:02;93426.72;;;6.57
28305;BMP280;15569;42.652;23.040;2023-12-04T01:16:27;93440.13;;;6.65
28305;BMP280;15569;42.652;23.040;2023-12-04T01:18:53;93436.59;;;6.62
28305;BMP280;15569;42.652;23.040;2023-12-04T01:21:19;93441.63;;;6.49
28305;BMP280;15569;42.652;23.040;2023-12-04T01:23:44;93432.53;;;6.54
28305;BMP280;15569;42.652;23.040;2023-12-04T01:26:10;93434.78;;;6.48
28305;BMP280;15569;42.652;23.040;2023-12-04T01:28:35;93448.69;;;6.71
28305;BMP280;15569;42.652;23.040;2023-12-04T01:31:00;93445.25;;;6.70
28305;BMP280;15569;42.652;23.040;2023-12-04T01:33:26;93453.16;;;7.43
28305;BMP280;15569;42.652;23.040;2023-12-04T01:35:51;93447.31;;;7.08
28305;BMP280;15569;42.652;23.040;2023-12-04T01:38:17;93441.91;;;6.89
28305;BMP280;15569;42.652;23.040;2023-12-04T01:40:43;93446.59;;;6.89
28305;BMP280;15569;42.652;23.040;2023-12-04T01:43:08;93450.88;;;7.01
28305;BMP280;15569;42.652;23.040;2023-12-04T01:45:33;93449.88;;;6.97
28305;BMP280;15569;42.652;23.040;2023-12-04T01:47:59;93446.19;;;7.02
28305;BMP280;15569;42.652;23.040;2023-12-04T01:50:24;93439.50;;;6.57
28305;BMP280;15569;42.652;23.040;2023-12-04T01:52:51;93449.94;;;6.70
28305;BMP280;15569;42.652;23.040;2023-12-04T01:55:17;93457.41;;;6.98
28305;BMP280;15569;42.652;23.040;2023-12-04T01:57:43;93446.69;;;6.81
28305;BMP280;15569;42.652;23.040;2023-12-04T02:00:09;93456.59;;;7.24
28305;BMP280;15569;42.652;23.040;2023-12-04T02:02:40;93452.88;;;7.29
28305;BMP280;15569;42.652;23.040;2023-12-04T02:05:08;93459.44;;;7.65
28305;BMP280;15569;42.652;23.040;2023-12-04T02:07:33;93454.00;;;7.17
28305;BMP280;15569;42.652;23.040;2023-12-04T02:09:59;93449.75;;;7.23
28305;BMP280;15569;42.652;23.040;2023-12-04T02:12:25;93450.06;;;7.37
28305;BMP280;15569;42.652;23.040;2023-12-04T02:14:51;93445.31;;;6.99
28305;BMP280;15569;42.652;23.040;2023-12-04T02:17:17;93439.09;;;6.60
28305;BMP280;15569;42.652;23.040;2023-12-04T02:19:43;93461.00;;;7.58
28305;BMP280;15569;42.652;23.040;2023-12-04T02:22:09;93451.75;;;7.23
28305;BMP280;15569;42.652;23.040;2023-12-04T02:24:35;93464.78;;;6.88
28305;BMP280;15569;42.652;23.040;2023-12-04T02:27:12;93464.63;;;6.77
28305;BMP280;15569;42.652;23.040;2023-12-04T02:29:42;93469.72;;;6.36
28305;BMP280;15569;42.652;23.040;2023-12-04T02:32:14;93476.72;;;6.85
28305;BMP280;15569;42.652;23.040;2023-12-04T02:34:41;93472.09;;;6.68
28305;BMP280;15569;42.652;23.040;2023-12-04T02:37:09;93477.34;;;6.21
28305;BMP280;15569;42.652;23.040;2023-12-04T02:39:36;93463.16;;;5.86
28305;BMP280;15569;42.652;23.040;2023-12-04T02:42:03;93478.44;;;6.44
28305;BMP280;15569;42.652;23.040;2023-12-04T02:44:28;93463.19;;;6.39
28305;BMP280;15569;42.652;23.040;2023-12-04T02:46:53;93464.56;;;6.04
28305;BMP280;15569;42.652;23.040;2023-12-04T02:49:19;93472.78;;;5.79
28305;BMP280;15569;42.652;23.040;2023-12-04T02:51:44;93471.50;;;5.97
28305;BMP280;15569;42.652;23.040;2023-12-04T02:54:09;93480.03;;;6.03
28305;BMP280;15569;42.652;23.040;2023-12-04T02:56:35;93475.56;;;6.16
28305;BMP280;15569;42.652;23.040;2023-12-04T02:59:00;93482.28;;;5.97
28305;BMP280;15569;42.652;23.040;2023-12-04T03:01:26;93472.03;;;6.40
28305;BMP280;15569;42.652;23.040;2023-12-04T03:03:51;93479.97;;;6.84
28305;BMP280;15569;42.652;23.040;2023-12-04T03:06:16;93469.13;;;6.64
28305;BMP280;15569;42.652;23.040;2023-12-04T03:08:42;93471.94;;;6.21
28305;BMP280;15569;42.652;23.040;2023-12-04T03:11:08;93471.59;;;6.17
28305;BMP280;15569;42.652;23.040;2023-12-04T03:13:34;93475.84;;;6.10
28305;BMP280;15569;42.652;23.040;2023-12-04T03:15:59;93478.13;;;6.14
28305;BMP280;15569;42.652;23.040;2023-12-04T03:18:25;93483.16;;;6.27
28305;BMP280;15569;42.652;23.040;2023-12-04T03:20:51;93487.69;;;6.51
28305;BMP280;15569;42.652;23.040;2023-12-04T03:23:16;93486.97;;;6.77
28305;BMP280;15569;42.652;23.040;2023-12-04T03:25:42;93484.84;;;6.49
28305;BMP280;15569;42.652;23.040;2023-12-04T03:28:07;93497.78;;;6.77
28305;BMP280;15569;42.652;23.040;2023-12-04T03:30:33;93490.56;;;6.53
28305;BMP280;15569;42.652;23.040;2023-12-04T03:32:58;93492.41;;;6.50
28305;BMP280;15569;42.652;23.040;2023-12-04T03:35:23;93490.44;;;6.34
28305;BMP280;15569;42.652;23.040;2023-12-04T03:37:49;93486.09;;;6.38
28305;BMP280;15569;42.652;23.040;2023-12-04T03:40:17;93485.91;;;6.10
28305;BMP280;15569;42.652;23.040;2023-12-04T03:42:42;93492.69;;;6.28
28305;BMP280;15569;42.652;23.040;2023-12-04T03:45:08;93497.34;;;6.18
28305;BMP280;15569;42.652;23.040;2023-12-04T03:47:34;93491.03;;;5.88
28305;BMP280;15569;42.652;23.040;2023-12-04T03:49:59;93507.31;;;5.81
28305;BMP280;15569;42.652;23.040;2023-12-04T03:52:25;93502.13;;;6.10
28305;BMP280;15569;42.652;23.040;2023-12-04T03:54:50;93509.03;;;6.30
28305;BMP280;15569;42.652;23.040;2023-12-04T03:57:15;93503.09;;;6.31
28305;BMP280;15569;42.652;23.040;2023-12-04T03:59:41;93497.50;;;6.20
28305;BMP280;15569;42.652;23.040;2023-12-04T04:02:06;93493.84;;;5.81
28305;BMP280;15569;42.652;23.040;2023-12-04T04:04:32;93496.38;;;5.62
28305;BMP280;15569;42.652;23.040;2023-12-04T04:06:57;93508.22;;;5.49
28305;BMP280;15569;42.652;23.040;2023-12-04T04:09:22;93503.72;;;5.27
28305;BMP280;15569;42.652;23.040;2023-12-04T04:11:48;93502.81;;;5.49
28305;BMP280;15569;42.652;23.040;2023-12-04T04:14:13;93510.72;;;5.64
28305;BMP280;15569;42.652;23.040;2023-12-04T04:16:39;93496.72;;;5.07
28305;BMP280;15569;42.652;23.040;2023-12-04T04:19:05;93501.19;;;5.29
28305;BMP280;15569;42.652;23.040;2023-12-04T04:21:31;93497.38;;;5.32
28305;BMP280;15569;42.652;23.040;2023-12-04T04:23:56;93494.69;;;5.32
28305;BMP280;15569;42.652;23.040;2023-12-04T04:26:21;93506.56;;;5.29
28305;BMP280;15569;42.652;23.040;2023-12-04T04:28:47;93498.25;;;4.93
28305;BMP280;15569;42.652;23.040;2023-12-04T04:31:12;93495.25;;;4.64
28305;BMP280;15569;42.652;23.040;2023-12-04T04:33:38;93500.63;;;4.64
28305;BMP280;15569;42.652;23.040;2023-12-04T04:36:04;93483.88;;;4.48
28305;BMP280;15569;42.652;23.040;2023-12-04T04:38:29;93499.84;;;4.46
28305;BMP280;15569;42.652;23.040;2023-12-04T04:40:54;93505.66;;;4.67
28305;BMP280;15569;42.652;23.040;2023-12-04T04:43:20;93510.44;;;4.76
28305;BMP280;15569;42.652;23.040;2023-12-04T04:45:46;93510.19;;;4.57
28305;BMP280;15569;42.652;23.040;2023-12-04T04:48:11;93494.31;;;4.44
28305;BMP280;15569;42.652;23.040;2023-12-04T04:50:36;93518.09;;;4.55
28305;BMP280;15569;42.652;23.040;2023-12-04T04:53:02;93516.94;;;4.41
28305;BMP280;15569;42.652;23.040;2023-12-04T04:55:27;93498.34;;;4.28
28305;BMP280;15569;42.652;23.040;2023-12-04T04:57:53;93515.84;;;4.44
28305;BMP280;15569;42.652;23.040;2023-12-04T05:00:18;93520.03;;;4.30
28305;BMP280;15569;42.652;23.040;2023-12-04T05:02:44;93526.09;;;4.38
28305;BMP280;15569;42.652;23.040;2023-12-04T05:05:11;93521.88;;;4.20
28305;BMP280;15569;42.652;23.040;2023-12-04T05:07:36;93526.97;;;4.08
28305;BMP280;15569;42.652;23.040;2023-12-04T05:10:02;93535.03;;;4.01
28305;BMP280;15569;42.652;23.040;2023-12-04T05:12:27;93528.13;;;3.90
28305;BMP280;15569;42.652;23.040;2023-12-04T05:14:53;93541.66;;;4.07
28305;BMP280;15569;42.652;23.040;2023-12-04T05:17:18;93535.09;;;3.86
28305;BMP280;15569;42.652;23.040;2023-12-04T05:19:43;93529.06;;;3.70
28305;BMP280;15569;42.652;23.040;2023-12-04T05:22:09;93536.91;;;3.76
28305;BMP280;15569;42.652;23.040;2023-12-04T05:24:34;93538.16;;;3.82
28305;BMP280;15569;42.652;23.040;2023-12-04T05:27:01;93538.03;;;3.58
28305;BMP280;15569;42.652;23.040;2023-12-04T05:29:27;93539.28;;;3.57
28305;BMP280;15569;42.652;23.040;2023-12-04T05:31:53;93530.00;;;3.42
28305;BMP280;15569;42.652;23.040;2023-12-04T05:34:18;93539.84;;;3.47
28305;BMP280;15569;42.652;23.040;2023-12-04T05:36:43;93547.91;;;3.55
28305;BMP280;15569;42.652;23.040;2023-12-04T05:39:09;93551.81;;;3.46
28305;BMP280;15569;42.652;23.040;2023-12-04T05:41:34;93548.44;;;3.61
28305;BMP280;15569;42.652;23.040;2023-12-04T05:44:00;93550.19;;;3.81
28305;BMP280;15569;42.652;23.040;2023-12-04T05:46:26;93556.09;;;3.80
28305;BMP280;15569;42.652;23.040;2023-12-04T05:48:51;93541.03;;;3.84
28305;BMP280;15569;42.652;23.040;2023-12-04T05:51:16;93531.34;;;3.89
28305;BMP280;15569;42.652;23.040;2023-12-04T05:53:42;93558.53;;;4.00
28305;BMP280;15569;42.652;23.040;2023-12-04T05:56:08;93546.22;;;3.90
28305;BMP280;15569;42.652;23.040;2023-12-04T05:58:34;93547.50;;;3.81
28305;BMP280;15569;42.652;23.040;2023-12-04T06:01:00;93547.44;;;3.96
28305;BMP280;15569;42.652;23.040;2023-12-04T06:03:25;93550.50;;;3.93
28305;BMP280;15569;42.652;23.040;2023-12-04T06:05:50;93553.19;;;3.93
28305;BMP280;15569;42.652;23.040;2023-12-04T06:08:16;93553.19;;;3.93
28305;BMP280;15569;42.652;23.040;2023-12-04T06:10:41;93557.50;;;3.88
28305;BMP280;15569;42.652;23.040;2023-12-04T06:13:07;93546.75;;;3.88
28305;BMP280;15569;42.652;23.040;2023-12-04T06:15:32;93555.38;;;3.87
28305;BMP280;15569;42.652;23.040;2023-12-04T06:17:57;93550.72;;;3.72
28305;BMP280;15569;42.652;23.040;2023-12-04T06:20:23;93562.44;;;4.14
28305;BMP280;15569;42.652;23.040;2023-12-04T06:22:48;93563.44;;;4.34
28305;BMP280;15569;42.652;23.040;2023-12-04T06:25:15;93562.44;;;4.14
28305;BMP280;15569;42.652;23.040;2023-12-04T06:27:40;93568.44;;;4.38
28305;BMP280;15569;42.652;23.040;2023-12-04T06:30:06;93574.25;;;4.27
28305;BMP280;15569;42.652;23.040;2023-12-04T06:32:32;93570.63;;;4.32
28305;BMP280;15569;42.652;23.040;2023-12-04T06:34:58;93576.97;;;4.59
28305;BMP280;15569;42.652;23.040;2023-12-04T06:37:24;93584.66;;;4.62
28305;BMP280;15569;42.652;23.040;2023-12-04T06:39:50;93586.28;;;4.65
28305;BMP280;15569;42.652;23.040;2023-12-04T06:42:18;93593.16;;;4.51
28305;BMP280;15569;42.652;23.040;2023-12-04T06:44:43;93582.34;;;4.59
28305;BMP280;15569;42.652;23.040;2023-12-04T06:47:09;93587.53;;;4.64
28305;BMP280;15569;42.652;23.040;2023-12-04T06:49:36;93592.63;;;4.85
28305;BMP280;15569;42.652;23.040;2023-12-04T06:52:02;93587.06;;;5.08
28305;BMP280;15569;42.652;23.040;2023-12-04T06:54:28;93589.50;;;5.21
28305;BMP280;15569;42.652;23.040;2023-12-04T06:56:53;93590.44;;;5.16
28305;BMP280;15569;42.652;23.040;2023-12-04T06:59:19;93589.78;;;5.50
28305;BMP280;15569;42.652;23.040;2023-12-04T07:01:44;93591.63;;;5.47
28305;BMP280;15569;42.652;23.040;2023-12-04T07:04:10;93583.72;;;5.49
28305;BMP280;15569;42.652;23.040;2023-12-04T07:06:36;93569.41;;;5.39
28305;BMP280;15569;42.652;23.040;2023-12-04T07:09:02;93568.22;;;5.50
28305;BMP280;15569;42.652;23.040;2023-12-04T07:11:28;93587.56;;;5.38
28305;BMP280;15569;42.652;23.040;2023-12-04T07:13:53;93595.63;;;5.63
28305;BMP280;15569;42.652;23.040;2023-12-04T07:16:18;93600.53;;;5.91
28305;BMP280;15569;42.652;23.040;2023-12-04T07:18:44;93599.44;;;5.77
28305;BMP280;15569;42.652;23.040;2023-12-04T07:21:09;93591.56;;;5.72
28305;BMP280;15569;42.652;23.040;2023-12-04T07:23:35;93582.53;;;5.77
28305;BMP280;15569;42.652;23.040;2023-12-04T07:26:00;93611.28;;;5.99
28305;BMP280;15569;42.652;23.040;2023-12-04T07:28:25;93601.19;;;5.99
28305;BMP280;15569;42.652;23.040;2023-12-04T07:30:51;93599.44;;;5.94
28305;BMP280;15569;42.652;23.040;2023-12-04T07:33:16;93596.50;;;5.83
28305;BMP280;15569;42.652;23.040;2023-12-04T07:35:43;93590.13;;;5.54
28305;BMP280;15569;42.652;23.040;2023-12-04T07:38:08;93597.13;;;5.74
28305;BMP280;15569;42.652;23.040;2023-12-04T07:40:33;93599.59;;;5.79
28305;BMP280;15569;42.652;23.040;2023-12-04T07:42:59;93599.19;;;5.66
28305;BMP280;15569;42.652;23.040;2023-12-04T07:45:24;93610.38;;;6.14
28305;BMP280;15569;42.652;23.040;2023-12-04T07:47:50;93598.63;;;6.01
28305;BMP280;15569;42.652;23.040;2023-12-04T07:50:16;93591.03;;;5.90
28305;BMP280;15569;42.652;23.040;2023-12-04T07:52:41;93607.41;;;5.51
28305;BMP280;15569;42.652;23.040;2023-12-04T07:55:07;93615.63;;;5.77
28305;BMP280;15569;42.652;23.040;2023-12-04T07:57:32;93614.84;;;5.84
28305;BMP280;15569;42.652;23.040;2023-12-04T07:59:58;93622.63;;;5.38
28305;BMP280;15569;42.652;23.040;2023-12-04T08:02:23;93621.13;;;5.45
28305;BMP280;15569;42.652;23.040;2023-12-04T08:04:49;93621.91;;;5.97
28305;BMP280;15569;42.652;23.040;2023-12-04T08:07:14;93613.72;;;6.04
28305;BMP280;15569;42.652;23.040;2023-12-04T08:09:40;93616.81;;;6.01
28305;BMP280;15569;42.652;23.040;2023-12-04T08:12:06;93610.38;;;6.14
28305;BMP280;15569;42.652;23.040;2023-12-04T08:14:32;93612.84;;;6.02
28305;BMP280;15569;42.652;23.040;2023-12-04T08:16:58;93623.66;;;6.19
28305;BMP280;15569;42.652;23.040;2023-12-04T08:19:23;93629.19;;;5.87
28305;BMP280;15569;42.652;23.040;2023-12-04T08:21:49;93630.28;;;6.52
28305;BMP280;15569;42.652;23.040;2023-12-04T08:24:14;93630.81;;;6.68
28305;BMP280;15569;42.652;23.040;2023-12-04T08:26:42;93631.72;;;7.07
28305;BMP280;15569;42.652;23.040;2023-12-04T08:29:07;93621.53;;;6.88
28305;BMP280;15569;42.652;23.040;2023-12-04T08:31:33;93626.59;;;7.11
28305;BMP280;15569;42.652;23.040;2023-12-04T08:33:58;93612.88;;;7.26
28305;BMP280;15569;42.652;23.040;2023-12-04T08:36:24;93624.28;;;6.98
28305;BMP280;15569;42.652;23.040;2023-12-04T08:38:49;93634.34;;;7.24
28305;BMP280;15569;42.652;23.040;2023-12-04T08:41:15;93609.91;;;6.95
28305;BMP280;15569;42.652;23.040;2023-12-04T08:43:40;93632.50;;;6.90
28305;BMP280;15569;42.652;23.040;2023-12-04T08:46:06;93620.72;;;6.95
28305;BMP280;15569;42.652;23.040;2023-12-04T08:48:32;93611.94;;;6.78
28305;BMP280;15569;42.652;23.040;2023-12-04T08:50:58;93617.09;;;6.83
28305;BMP280;15569;42.652;23.040;2023-12-04T08:53:23;93615.22;;;6.76
28305;BMP280;15569;42.652;23.040;2023-12-04T08:55:49;93615.00;;;6.38
28305;BMP280;15569;42.652;23.040;2023-12-04T08:58:16;93607.09;;;6.49
28305;BMP280;15569;42.652;23.040;2023-12-04T09:00:42;93604.13;;;6.82
28305;BMP280;15569;42.652;23.040;2023-12-04T09:03:11;93602.75;;;6.90
28305;BMP280;15569;42.652;23.040;2023-12-04T09:05:36;93605.16;;;6.59
28305;BMP280;15569;42.652;23.040;2023-12-04T09:08:03;93598.72;;;6.82
28305;BMP280;15569;42.652;23.040;2023-12-04T09:10:28;93595.44;;;7.10
28305;BMP280;15569;42.652;23.040;2023-12-04T09:12:54;93592.88;;;7.02
28305;BMP280;15569;42.652;23.040;2023-12-04T09:15:19;93593.56;;;7.49
28305;BMP280;15569;42.652;23.040;2023-12-04T09:17:45;93604.13;;;7.64
28305;BMP280;15569;42.652;23.040;2023-12-04T09:20:10;93580.03;;;7.58
28305;BMP280;15569;42.652;23.040;2023-12-04T09:22:36;93594.47;;;7.61
28305;BMP280;15569;42.652;23.040;2023-12-04T09:25:05;93590.03;;;7.75
28305;BMP280;15569;42.652;23.040;2023-12-04T09:27:31;93594.47;;;7.61
28305;BMP280;15569;42.652;23.040;2023-12-04T09:29:56;93588.47;;;7.91
28305;BMP280;15569;42.652;23.040;2023-12-04T09:32:21;93589.38;;;7.93
28305;BMP280;15569;42.652;23.040;2023-12-04T09:34:47;93591.91;;;8.20
28305;BMP280;15569;42.652;23.040;2023-12-04T09:37:13;93590.88;;;8.16
28305;BMP280;15569;42.652;23.040;2023-12-04T09:39:39;93581.34;;;7.95
28305;BMP280;15569;42.652;23.040;2023-12-04T09:42:05;93576.78;;;7.79
28305;BMP280;15569;42.652;23.040;2023-12-04T09:44:32;93581.25;;;7.93
28305;BMP280;15569;42.652;23.040;2023-12-04T09:46:59;93576.50;;;7.84
28305;BMP280;15569;42.652;23.040;2023-12-04T09:49:26;93581.06;;;8.10
28305;BMP280;15569;42.652;23.040;2023-12-04T09:51:53;93570.66;;;8.07
28305;BMP280;15569;42.652;23.040;2023-12-04T09:54:19;93561.97;;;7.80
28305;BMP280;15569;42.652;23.040;2023-12-04T09:56:45;93562.41;;;8.15
28305;BMP280;15569;42.652;23.040;2023-12-04T09:59:13;93563.50;;;8.40
28305;BMP280;15569;42.652;23.040;2023-12-04T10:01:39;93560.53;;;8.76
28305;BMP280;15569;42.652;23.040;2023-12-04T10:04:05;93553.72;;;8.66
28305;BMP280;15569;42.652;23.040;2023-12-04T10:06:31;93550.94;;;8.45
28305;BMP280;15569;42.652;23.040;2023-12-04T10:08:57;93564.94;;;8.32
28305;BMP280;15569;42.652;23.040;2023-12-04T10:11:24;93560.91;;;8.52
28305;BMP280;15569;42.652;23.040;2023-12-04T10:13:50;93555.16;;;8.98
28305;BMP280;15569;42.652;23.040;2023-12-04T10:16:31;93560.97;;;8.82
28305;BMP280;15569;42.652;23.040;2023-12-04T10:18:57;93549.19;;;9.20
28305;BMP280;15569;42.652;23.040;2023-12-04T10:21:22;93558.94;;;8.43
28305;BMP280;15569;42.652;23.040;2023-12-04T10:23:47;93547.13;;;8.69
28305;BMP280;15569;42.652;23.040;2023-12-04T10:26:16;93538.94;;;8.88
28305;BMP280;15569;42.652;23.040;2023-12-04T10:28:58;93542.41;;;9.31
28305;BMP280;15569;42.652;23.040;2023-12-04T10:31:24;93537.53;;;9.39
28305;BMP280;15569;42.652;23.040;2023-12-04T10:33:49;93536.59;;;9.67
28305;BMP280;15569;42.652;23.040;2023-12-04T10:36:15;93531.09;;;9.77
28305;BMP280;15569;42.652;23.040;2023-12-04T10:38:40;93516.31;;;9.47
28305;BMP280;15569;42.652;23.040;2023-12-04T10:41:12;93523.41;;;9.73
28305;BMP280;15569;42.652;23.040;2023-12-04T10:43:46;93523.75;;;9.46
28305;BMP280;15569;42.652;23.040;2023-12-04T10:46:14;93516.41;;;9.70
28305;BMP280;15569;42.652;23.040;2023-12-04T10:48:43;93526.41;;;9.89
28305;BMP280;15569;42.652;23.040;2023-12-04T10:51:12;93514.63;;;9.96
28305;BMP280;15569;42.652;23.040;2023-12-04T10:53:38;93528.97;;;9.75
28305;BMP280;15569;42.652;23.040;2023-12-04T10:56:09;93510.78;;;10.10
28305;BMP280;15569;42.652;23.040;2023-12-04T10:58:36;93504.06;;;10.11
28305;BMP280;15569;42.652;23.040;2023-12-04T11:01:06;93497.56;;;10.28
28305;BMP280;15569;42.652;23.040;2023-12-04T11:03:40;93514.63;;;10.75
28305;BMP280;15569;42.652;23.040;2023-12-04T11:06:10;93508.09;;;11.15
28305;BMP280;15569;42.652;23.040;2023-12-04T11:08:39;93510.56;;;11.22
28305;BMP280;15569;42.652;23.040;2023-12-04T11:11:07;93503.56;;;11.19
28305;BMP280;15569;42.652;23.040;2023-12-04T11:13:37;93505.50;;;11.78
28305;BMP280;15569;42.652;23.040;2023-12-04T11:16:11;93506.25;;;11.42
28305;BMP280;15569;42.652;23.040;2023-12-04T11:18:41;93501.72;;;11.47
28305;BMP280;15569;42.652;23.040;2023-12-04T11:21:09;93491.06;;;11.14
28305;BMP280;15569;42.652;23.040;2023-12-04T11:23:35;93492.00;;;11.07
28305;BMP280;15569;42.652;23.040;2023-12-04T11:26:03;93490.13;;;12.22
28305;BMP280;15569;42.652;23.040;2023-12-04T11:28:30;93490.81;;;12.22
28305;BMP280;15569;42.652;23.040;2023-12-04T11:30:55;93480.03;;;12.38
28305;BMP280;15569;42.652;23.040;2023-12-04T11:33:21;93478.38;;;13.57
28305;BMP280;15569;42.652;23.040;2023-12-04T11:35:46;93487.56;;;13.93
28305;BMP280;15569;42.652;23.040;2023-12-04T11:38:16;93486.16;;;14.54
28305;BMP280;15569;42.652;23.040;2023-12-04T11:40:42;93479.13;;;14.33
28305;BMP280;15569;42.652;23.040;2023-12-04T11:43:28;93475.75;;;14.99
28305;BMP280;15569;42.652;23.040;2023-12-04T11:46:24;93477.81;;;15.69
28305;BMP280;15569;42.652;23.040;2023-12-04T11:48:51;93473.66;;;16.43
28305;BMP280;15569;42.652;23.040;2023-12-04T11:51:47;93477.78;;;16.63
28305;BMP280;15569;42.652;23.040;2023-12-04T11:54:20;93475.25;;;17.54
28305;BMP280;15569;42.652;23.040;2023-12-04T11:59:38;93458.31;;;18.34
28305;BMP280;15569;42.652;23.040;2023-12-04T12:02:07;93446.19;;;19.28
28305;BMP280;15569;42.652;23.040;2023-12-04T12:04:33;93460.03;;;19.93
28305;BMP280;15569;42.652;23.040;2023-12-04T12:06:58;93453.81;;;20.64
28305;BMP280;15569;42.652;23.040;2023-12-04T12:09:28;93453.06;;;21.01
28305;BMP280;15569;42.652;23.040;2023-12-04T12:11:53;93437.91;;;21.50
28305;BMP280;15569;42.652;23.040;2023-12-04T12:14:22;93443.38;;;22.02
28305;BMP280;15569;42.652;23.040;2023-12-04T12:16:48;93451.50;;;22.45
28305;BMP280;15569;42.652;23.040;2023-12-04T12:19:13;93434.06;;;23.15
28305;BMP280;15569;42.652;23.040;2023-12-04T12:21:39;93432.91;;;23.54
28305;BMP280;15569;42.652;23.040;2023-12-04T12:24:06;93422.72;;;24.02
28305;BMP280;15569;42.652;23.040;2023-12-04T12:26:32;93430.50;;;24.72
28305;BMP280;15569;42.652;23.040;2023-12-04T12:28:57;93436.03;;;25.08
28305;BMP280;15569;42.652;23.040;2023-12-04T12:31:23;93435.19;;;25.78
28305;BMP280;15569;42.652;23.040;2023-12-04T12:33:48;93437.75;;;26.22
28305;BMP280;15569;42.652;23.040;2023-12-04T12:36:14;93435.50;;;26.49
28305;BMP280;15569;42.652;23.040;2023-12-04T12:38:42;93431.53;;;26.10
28305;BMP280;15569;42.652;23.040;2023-12-04T12:41:11;93433.97;;;24.59
28305;BMP280;15569;42.652;23.040;2023-12-04T12:43:37;93441.56;;;25.28
28305;BMP280;15569;42.652;23.040;2023-12-04T12:46:04;93432.69;;;26.51
28305;BMP280;15569;42.652;23.040;2023-12-04T12:48:31;93435.31;;;27.45
28305;BMP280;15569;42.652;23.040;2023-12-04T12:50:57;93431.97;;;27.92
28305;BMP280;15569;42.652;23.040;2023-12-04T12:53:23;93423.63;;;27.90
28305;BMP280;15569;42.652;23.040;2023-12-04T12:55:48;93436.66;;;28.07
28305;BMP280;15569;42.652;23.040;2023-12-04T12:58:14;93427.53;;;28.11
28305;BMP280;15569;42.652;23.040;2023-12-04T13:00:40;93429.81;;;28.47
28305;BMP280;15569;42.652;23.040;2023-12-04T13:03:17;93426.94;;;29.34
28305;BMP280;15569;42.652;23.040;2023-12-04T13:05:43;93425.31;;;29.45
28305;BMP280;15569;42.652;23.040;2023-12-04T13:08:09;93425.00;;;29.24
28305;BMP280;15569;42.652;23.040;2023-12-04T13:10:34;93423.66;;;29.56
28305;BMP280;15569;42.652;23.040;2023-12-04T13:12:59;93420.88;;;29.56
28305;BMP280;15569;42.652;23.040;2023-12-04T13:15:26;93425.41;;;29.73
28305;BMP280;15569;42.652;23.040;2023-12-04T13:17:51;93434.13;;;28.38
28305;BMP280;15569;42.652;23.040;2023-12-04T13:20:17;93434.41;;;28.66
28305;BMP280;15569;42.652;23.040;2023-12-04T13:22:43;93429.69;;;29.36
28305;BMP280;15569;42.652;23.040;2023-12-04T13:25:08;93434.13;;;29.23
28305;BMP280;15569;42.652;23.040;2023-12-04T13:27:35;93431.69;;;29.76
28305;BMP280;15569;42.652;23.040;2023-12-04T13:30:05;93421.38;;;29.66
28305;BMP280;15569;42.652;23.040;2023-12-04T13:32:31;93412.63;;;29.83
28305;BMP280;15569;42.652;23.040;2023-12-04T13:34:58;93423.81;;;30.17
28305;BMP280;15569;42.652;23.040;2023-12-04T13:37:24;93426.88;;;29.73
28305;BMP280;15569;42.652;23.040;2023-12-04T13:39:52;93422.03;;;29.34
28305;BMP280;15569;42.652;23.040;2023-12-04T13:42:26;93422.03;;;29.69
28305;BMP280;15569;42.652;23.040;2023-12-04T13:45:11;93419.56;;;29.16
28305;BMP280;15569;42.652;23.040;2023-12-04T13:47:38;93422.69;;;28.96
28305;BMP280;15569;42.652;23.040;2023-12-04T13:50:05;93416.00;;;28.79
28305;BMP280;15569;42.652;23.040;2023-12-04T13:52:31;93404.03;;;28.40
28305;BMP280;15569;42.652;23.040;2023-12-04T13:54:59;93416.25;;;27.64
28305;BMP280;15569;42.652;23.040;2023-12-04T13:57:25;93421.09;;;27.05
28305;BMP280;15569;42.652;23.040;2023-12-04T13:59:54;93420.72;;;26.66
28305;BMP280;15569;42.652;23.040;2023-12-04T14:02:22;93421.44;;;26.67
28305;BMP280;15569;42.652;23.040;2023-12-04T14:04:47;93431.59;;;25.93